KLM1891 EGCC-EHAM
Flight info
| Callsign | KLM1891 |
|---|---|
| Flight time | N/A |
| Altitude | 31000 |
| Route | SONEX L975 DESIG L603 LAMSO |
| Aircraft | B738/M-SDE2E3FGHIRWXY/LB1 |
Departure
| Time | 2026-05-04 15:43 |
|---|---|
| Airport | Manchester Airport (EGCC) |
Arrival
| Time | N/A |
|---|---|
| Airport | Amsterdam Airport Schiphol (EHAM) |
| Time | Latitude | Longitude | Altitude | Speed | Heading |
|---|---|---|---|---|---|
| 2026-05-04 15:08 | 53.35940 | -2.27425 | 243 ft | 0 kts | 275° |
| 2026-05-04 15:30 | 53.35938 | -2.27310 | 242 ft | 0 kts | 275° |
| 2026-05-04 15:32 | 53.35929 | -2.27323 | 241 ft | 0 kts | 187° |
| 2026-05-04 15:32 | 53.35928 | -2.27322 | 241 ft | 0 kts | 175° |
| 2026-05-04 15:35 | 53.35889 | -2.27317 | 241 ft | 7 kts | 179° |
| 2026-05-04 15:35 | 53.35836 | -2.27316 | 241 ft | 10 kts | 179° |
| 2026-05-04 15:35 | 53.35794 | -2.27303 | 241 ft | 5 kts | 158° |
| 2026-05-04 15:36 | 53.35717 | -2.27209 | 239 ft | 0 kts | 141° |
| 2026-05-04 15:38 | 53.35716 | -2.27209 | 239 ft | 0 kts | 141° |
| 2026-05-04 15:38 | 53.35701 | -2.27188 | 239 ft | 6 kts | 141° |
| 2026-05-04 15:39 | 53.35651 | -2.27120 | 239 ft | 12 kts | 141° |
| 2026-05-04 15:39 | 53.35580 | -2.27024 | 238 ft | 15 kts | 141° |
| 2026-05-04 15:39 | 53.35519 | -2.26942 | 239 ft | 0 kts | 141° |
| 2026-05-04 15:40 | 53.35500 | -2.26917 | 239 ft | 6 kts | 141° |
| 2026-05-04 15:40 | 53.35463 | -2.26895 | 241 ft | 6 kts | 178° |
| 2026-05-04 15:41 | 53.35426 | -2.26925 | 243 ft | 6 kts | 222° |
| 2026-05-04 15:41 | 53.35398 | -2.26979 | 244 ft | 6 kts | 231° |
| 2026-05-04 15:41 | 53.35369 | -2.27040 | 246 ft | 8 kts | 231° |
| 2026-05-04 15:41 | 53.35326 | -2.27126 | 249 ft | 11 kts | 231° |
| 2026-05-04 15:42 | 53.35260 | -2.27208 | 254 ft | 12 kts | 198° |
| 2026-05-04 15:42 | 53.35178 | -2.27239 | 264 ft | 12 kts | 192° |
| 2026-05-04 15:42 | 53.35098 | -2.27267 | 270 ft | 13 kts | 191° |
| 2026-05-04 15:42 | 53.35002 | -2.27340 | 269 ft | 19 kts | 225° |
| 2026-05-04 15:43 | 53.34878 | -2.27588 | 264 ft | 54 kts | 231° |
| 2026-05-04 15:43 | 53.34440 | -2.28491 | 254 ft | 143 kts | 231° |
| 2026-05-04 15:43 | 53.33658 | -2.30111 | 307 ft | 208 kts | 232° |
| 2026-05-04 15:43 | 53.32738 | -2.32113 | 1041 ft | 224 kts | 233° |
| 2026-05-04 15:44 | 53.31902 | -2.34367 | 1905 ft | 226 kts | 250° |
| 2026-05-04 15:44 | 53.31758 | -2.36894 | 3065 ft | 216 kts | 282° |
| 2026-05-04 15:44 | 53.32388 | -2.39148 | 4010 ft | 217 kts | 311° |
| 2026-05-04 15:44 | 53.33599 | -2.40676 | 4700 ft | 221 kts | 336° |
| 2026-05-04 15:45 | 53.35050 | -2.41498 | 4996 ft | 223 kts | 343° |
| 2026-05-04 15:45 | 53.36558 | -2.42219 | 4998 ft | 226 kts | 343° |
| 2026-05-04 15:45 | 53.38075 | -2.42951 | 5002 ft | 226 kts | 343° |
| 2026-05-04 15:45 | 53.39584 | -2.43695 | 5004 ft | 226 kts | 343° |
| 2026-05-04 15:46 | 53.41087 | -2.44446 | 4992 ft | 224 kts | 342° |
| 2026-05-04 15:46 | 53.42565 | -2.45207 | 4995 ft | 221 kts | 343° |
| 2026-05-04 15:46 | 53.44074 | -2.45497 | 5004 ft | 219 kts | 7° |
| 2026-05-04 15:46 | 53.45510 | -2.44651 | 5023 ft | 222 kts | 32° |
| 2026-05-04 15:47 | 53.46623 | -2.42831 | 5016 ft | 228 kts | 58° |
| 2026-05-04 15:47 | 53.47217 | -2.40405 | 5017 ft | 229 kts | 76° |
| 2026-05-04 15:47 | 53.47546 | -2.37796 | 5013 ft | 228 kts | 77° |
| 2026-05-04 15:47 | 53.47851 | -2.35138 | 5097 ft | 238 kts | 79° |
| 2026-05-04 15:48 | 53.48185 | -2.32264 | 5446 ft | 261 kts | 78° |
| 2026-05-04 15:48 | 53.48516 | -2.29222 | 6234 ft | 268 kts | 79° |
| 2026-05-04 15:48 | 53.49200 | -2.22974 | 7943 ft | 276 kts | 79° |
| 2026-05-04 15:49 | 53.49540 | -2.19774 | 8773 ft | 280 kts | 79° |
| 2026-05-04 15:49 | 53.49878 | -2.16526 | 9633 ft | 284 kts | 79° |
| 2026-05-04 15:49 | 53.50221 | -2.13220 | 10421 ft | 289 kts | 79° |
| 2026-05-04 15:49 | 53.50569 | -2.09878 | 11211 ft | 292 kts | 79° |
| 2026-05-04 15:50 | 53.50918 | -2.06540 | 11999 ft | 295 kts | 79° |
| 2026-05-04 15:50 | 53.51275 | -2.03109 | 12774 ft | 300 kts | 79° |
| 2026-05-04 15:50 | 53.51635 | -1.99635 | 13566 ft | 304 kts | 80° |
| 2026-05-04 15:50 | 53.52000 | -1.96111 | 14310 ft | 308 kts | 80° |
| 2026-05-04 15:51 | 53.52366 | -1.92556 | 15044 ft | 310 kts | 80° |
| 2026-05-04 15:51 | 53.52591 | -1.88945 | 15755 ft | 313 kts | 96° |
| 2026-05-04 15:51 | 53.52097 | -1.85384 | 16499 ft | 314 kts | 107° |
| 2026-05-04 15:51 | 53.51459 | -1.81857 | 17235 ft | 317 kts | 107° |
| 2026-05-04 15:52 | 53.50812 | -1.78293 | 17959 ft | 320 kts | 107° |
| 2026-05-04 15:52 | 53.50166 | -1.74695 | 18632 ft | 323 kts | 107° |
| 2026-05-04 15:52 | 53.49522 | -1.71067 | 18973 ft | 325 kts | 107° |
| 2026-05-04 15:52 | 53.48884 | -1.67440 | 18995 ft | 323 kts | 107° |
| 2026-05-04 15:53 | 53.48248 | -1.63820 | 19016 ft | 325 kts | 107° |
| 2026-05-04 15:53 | 53.47613 | -1.60219 | 19024 ft | 326 kts | 107° |
| 2026-05-04 15:53 | 53.46966 | -1.56568 | 19026 ft | 327 kts | 107° |
| 2026-05-04 15:53 | 53.46309 | -1.52913 | 19022 ft | 328 kts | 107° |
| 2026-05-04 15:54 | 53.45647 | -1.49243 | 19241 ft | 329 kts | 107° |
| 2026-05-04 15:54 | 53.44980 | -1.45552 | 19877 ft | 330 kts | 107° |
| 2026-05-04 15:54 | 53.44315 | -1.41873 | 20642 ft | 328 kts | 107° |
| 2026-05-04 15:54 | 53.43652 | -1.38202 | 21337 ft | 330 kts | 107° |
| 2026-05-04 15:55 | 53.42983 | -1.34509 | 21962 ft | 332 kts | 107° |
| 2026-05-04 15:55 | 53.42307 | -1.30792 | 22588 ft | 334 kts | 107° |
| 2026-05-04 15:55 | 53.41629 | -1.27053 | 23219 ft | 336 kts | 106° |
| 2026-05-04 15:55 | 53.40964 | -1.23280 | 23820 ft | 338 kts | 105° |
| 2026-05-04 15:56 | 53.40307 | -1.19534 | 24324 ft | 340 kts | 106° |
| 2026-05-04 15:56 | 53.39617 | -1.15724 | 24849 ft | 342 kts | 106° |
| 2026-05-04 15:56 | 53.38914 | -1.11902 | 25371 ft | 345 kts | 106° |
| 2026-05-04 15:56 | 53.38204 | -1.08053 | 25885 ft | 347 kts | 105° |
| 2026-05-04 15:57 | 53.37487 | -1.04172 | 26413 ft | 348 kts | 105° |
| 2026-05-04 15:57 | 53.36773 | -1.00307 | 27034 ft | 345 kts | 105° |
| 2026-05-04 15:57 | 53.36304 | -0.97768 | 27457 ft | 344 kts | 105° |
| 2026-05-04 15:57 | 53.35370 | -0.92729 | 28301 ft | 340 kts | 105° |
| 2026-05-04 15:58 | 53.34670 | -0.88956 | 28874 ft | 338 kts | 105° |
| 2026-05-04 15:58 | 53.33972 | -0.85195 | 29407 ft | 338 kts | 105° |
| 2026-05-04 15:58 | 53.33274 | -0.81442 | 29872 ft | 340 kts | 104° |
| 2026-05-04 15:58 | 53.32793 | -0.78850 | 29924 ft | 349 kts | 104° |
| 2026-05-04 15:59 | 53.32061 | -0.74919 | 30037 ft | 361 kts | 105° |
| 2026-05-04 15:59 | 53.31308 | -0.70896 | 30109 ft | 372 kts | 105° |
| 2026-05-04 15:59 | 53.29714 | -0.62420 | 30383 ft | 388 kts | 105° |
| 2026-05-04 16:00 | 53.28898 | -0.58108 | 30758 ft | 389 kts | 105° |
| 2026-05-04 16:00 | 53.28082 | -0.53792 | 30994 ft | 391 kts | 105° |
| 2026-05-04 16:00 | 53.26438 | -0.45134 | 30992 ft | 389 kts | 105° |
| 2026-05-04 16:01 | 53.24821 | -0.36567 | 31009 ft | 389 kts | 106° |
| 2026-05-04 16:01 | 53.23180 | -0.27919 | 31001 ft | 393 kts | 107° |
| 2026-05-04 16:02 | 53.21502 | -0.19216 | 31003 ft | 394 kts | 107° |
| 2026-05-04 16:03 | 53.18969 | -0.06132 | 31008 ft | 395 kts | 107° |
| 2026-05-04 16:03 | 53.17273 | 0.02599 | 30980 ft | 396 kts | 108° |
| 2026-05-04 16:04 | 53.15583 | 0.11297 | 30993 ft | 397 kts | 108° |
| 2026-05-04 16:04 | 53.13017 | 0.24435 | 30993 ft | 398 kts | 108° |
| 2026-05-04 16:05 | 53.11299 | 0.33184 | 30993 ft | 399 kts | 108° |
| 2026-05-04 16:06 | 53.08693 | 0.46375 | 30991 ft | 400 kts | 108° |
| 2026-05-04 16:07 | 53.05184 | 0.63999 | 31002 ft | 403 kts | 109° |
| 2026-05-04 16:08 | 53.01618 | 0.81748 | 30997 ft | 408 kts | 109° |
| 2026-05-04 16:09 | 52.97298 | 1.04218 | 30985 ft | 412 kts | 103° |
| 2026-05-04 16:10 | 52.95201 | 1.23070 | 30997 ft | 417 kts | 102° |
| 2026-05-04 16:11 | 52.93020 | 1.41931 | 30990 ft | 418 kts | 103° |
| 2026-05-04 16:12 | 52.89634 | 1.70199 | 30993 ft | 416 kts | 103° |
| 2026-05-04 16:13 | 52.87346 | 1.88972 | 30983 ft | 417 kts | 103° |
| 2026-05-04 16:14 | 52.85021 | 2.07787 | 30974 ft | 418 kts | 104° |
| 2026-05-04 16:16 | 52.82072 | 2.31290 | 30975 ft | 419 kts | 104° |
| 2026-05-04 16:17 | 52.79075 | 2.54859 | 30961 ft | 419 kts | 105° |
| 2026-05-04 16:18 | 52.76650 | 2.73527 | 30716 ft | 409 kts | 105° |
| 2026-05-04 16:19 | 52.74858 | 2.87307 | 29218 ft | 408 kts | 105° |
| 2026-05-04 16:19 | 52.73685 | 2.96431 | 28300 ft | 404 kts | 105° |
| 2026-05-04 16:20 | 52.70149 | 3.08604 | 27005 ft | 388 kts | 125° |
| 2026-05-04 16:20 | 52.67422 | 3.16203 | 26092 ft | 388 kts | 124° |
| 2026-05-04 16:21 | 52.63364 | 3.27697 | 24858 ft | 385 kts | 123° |
| 2026-05-04 16:22 | 52.60678 | 3.35303 | 24064 ft | 383 kts | 123° |
| 2026-05-04 16:22 | 52.57780 | 3.47399 | 22883 ft | 382 kts | 101° |
| 2026-05-04 16:23 | 52.56489 | 3.60194 | 21770 ft | 374 kts | 101° |
| 2026-05-04 16:24 | 52.54766 | 3.76459 | 21008 ft | 345 kts | 101° |
| 2026-05-04 16:25 | 52.53931 | 3.84146 | 20351 ft | 342 kts | 101° |
| 2026-05-04 16:26 | 52.51529 | 3.98869 | 19152 ft | 328 kts | 129° |
| 2026-05-04 16:26 | 52.47220 | 4.07371 | 18279 ft | 321 kts | 132° |
| 2026-05-04 16:27 | 52.44342 | 4.12935 | 17604 ft | 318 kts | 132° |
| 2026-05-04 16:28 | 52.40099 | 4.21208 | 16603 ft | 315 kts | 132° |
| 2026-05-04 16:28 | 52.35906 | 4.29394 | 15682 ft | 310 kts | 131° |
| 2026-05-04 16:29 | 52.30404 | 4.40103 | 14450 ft | 306 kts | 132° |
| 2026-05-04 16:30 | 52.26301 | 4.48064 | 13579 ft | 302 kts | 131° |
| 2026-05-04 16:31 | 52.23612 | 4.53308 | 12758 ft | 305 kts | 126° |
| 2026-05-04 16:31 | 52.24415 | 4.63333 | 10537 ft | 339 kts | 41° |